LIPY/AOI METAR and TAF weather

Enter ICAO airport designator
Station Type Date Time Source
LIPY METAR 2021/03/08 11:50 UTC NOAA

LIPY 081150Z AUTO 04006KT 9999 OVC026/// 09/06 Q1017


Station Type Date Time Source
LIPY Decoded METAR 2021/03/08 11:50 UTC NOAA

Falconara, Italy (LIPY) 43-37N 013-22E 10M
Mar 08, 2021 - 06:50 AM EST / 2021.03.08 1150 UTC
Wind: from the NE (040 degrees) at 7 MPH (6 KT):0
Visibility: greater than 7 mile(s):0
Sky conditions: overcast
Temperature: 48 F (9 C)
Dew Point: 42 F (6 C)
Relative Humidity: 81%
Pressure (altimeter): 30.03 in. Hg (1017 hPa)
ob: LIPY 081150Z AUTO 04006KT 9999 OVC026/// 09/06 Q1017
cycle: 12

Station Type Date Time Source
LIPY TAF 2021/03/08 12:23 UTC NOAA

TAF LIPY 081100Z 0812/0912 VRB05KT 9999 BKN030
TEMPO 0820/0912 08010KT 4000 RA

Example: see airport list